sensor_id;sensor_type;location;lat;lon;timestamp;P1;durP1;ratioP1;P2;durP2;ratioP2
6141;SDS011;71289;51.552;6.210;2023-12-20T00:01:40;18.40;;;8.50;;
6141;SDS011;71289;51.552;6.210;2023-12-20T00:04:05;14.20;;;8.53;;
6141;SDS011;71289;51.552;6.210;2023-12-20T00:06:31;18.20;;;8.67;;
6141;SDS011;71289;51.552;6.210;2023-12-20T00:08:57;18.10;;;8.10;;
6141;SDS011;71289;51.552;6.210;2023-12-20T00:11:25;13.50;;;7.40;;
6141;SDS011;71289;51.552;6.210;2023-12-20T00:13:50;13.00;;;7.20;;
6141;SDS011;71289;51.552;6.210;2023-12-20T00:16:16;16.80;;;8.60;;
6141;SDS011;71289;51.552;6.210;2023-12-20T00:18:42;17.73;;;7.87;;
6141;SDS011;71289;51.552;6.210;2023-12-20T00:21:07;14.30;;;8.40;;
6141;SDS011;71289;51.552;6.210;2023-12-20T00:23:33;12.03;;;7.10;;
6141;SDS011;71289;51.552;6.210;2023-12-20T00:25:58;21.93;;;9.83;;
6141;SDS011;71289;51.552;6.210;2023-12-20T00:28:24;15.23;;;7.67;;
6141;SDS011;71289;51.552;6.210;2023-12-20T00:30:49;14.00;;;6.57;;
6141;SDS011;71289;51.552;6.210;2023-12-20T00:33:15;16.73;;;7.10;;
6141;SDS011;71289;51.552;6.210;2023-12-20T00:35:40;10.97;;;5.90;;
6141;SDS011;71289;51.552;6.210;2023-12-20T00:38:06;22.63;;;6.20;;
6141;SDS011;71289;51.552;6.210;2023-12-20T00:40:33;15.53;;;6.43;;
6141;SDS011;71289;51.552;6.210;2023-12-20T00:42:59;6.70;;;4.43;;
6141;SDS011;71289;51.552;6.210;2023-12-20T00:45:24;12.60;;;5.17;;
6141;SDS011;71289;51.552;6.210;2023-12-20T00:47:50;5.80;;;4.83;;
6141;SDS011;71289;51.552;6.210;2023-12-20T00:50:15;12.80;;;6.97;;
6141;SDS011;71289;51.552;6.210;2023-12-20T00:52:41;7.00;;;5.30;;
6141;SDS011;71289;51.552;6.210;2023-12-20T00:55:07;11.37;;;5.20;;
6141;SDS011;71289;51.552;6.210;2023-12-20T00:57:32;15.93;;;5.93;;
6141;SDS011;71289;51.552;6.210;2023-12-20T00:59:58;7.60;;;5.03;;
6141;SDS011;71289;51.552;6.210;2023-12-20T01:02:23;14.00;;;6.80;;
6141;SDS011;71289;51.552;6.210;2023-12-20T01:04:49;16.07;;;6.07;;
6141;SDS011;71289;51.552;6.210;2023-12-20T01:07:14;12.40;;;6.10;;
6141;SDS011;71289;51.552;6.210;2023-12-20T01:09:40;18.20;;;6.17;;
6141;SDS011;71289;51.552;6.210;2023-12-20T01:12:05;8.73;;;5.20;;
6141;SDS011;71289;51.552;6.210;2023-12-20T01:14:31;19.43;;;7.00;;
6141;SDS011;71289;51.552;6.210;2023-12-20T01:16:56;9.37;;;7.20;;
6141;SDS011;71289;51.552;6.210;2023-12-20T01:19:22;12.07;;;5.73;;
6141;SDS011;71289;51.552;6.210;2023-12-20T01:21:48;27.27;;;6.80;;
6141;SDS011;71289;51.552;6.210;2023-12-20T01:24:14;19.53;;;6.23;;
6141;SDS011;71289;51.552;6.210;2023-12-20T01:26:40;13.40;;;5.90;;
6141;SDS011;71289;51.552;6.210;2023-12-20T01:29:05;10.50;;;6.57;;
6141;SDS011;71289;51.552;6.210;2023-12-20T01:31:31;7.00;;;5.73;;
6141;SDS011;71289;51.552;6.210;2023-12-20T01:33:56;13.13;;;7.63;;
6141;SDS011;71289;51.552;6.210;2023-12-20T01:36:21;14.13;;;6.70;;
6141;SDS011;71289;51.552;6.210;2023-12-20T01:38:47;18.07;;;6.93;;
6141;SDS011;71289;51.552;6.210;2023-12-20T01:41:12;14.40;;;5.87;;
6141;SDS011;71289;51.552;6.210;2023-12-20T01:43:38;12.93;;;4.73;;
6141;SDS011;71289;51.552;6.210;2023-12-20T01:46:03;6.33;;;4.70;;
6141;SDS011;71289;51.552;6.210;2023-12-20T01:48:29;15.17;;;6.00;;
6141;SDS011;71289;51.552;6.210;2023-12-20T01:50:57;12.27;;;6.17;;
6141;SDS011;71289;51.552;6.210;2023-12-20T01:53:24;9.87;;;5.53;;
6141;SDS011;71289;51.552;6.210;2023-12-20T01:55:52;10.70;;;5.50;;
6141;SDS011;71289;51.552;6.210;2023-12-20T01:58:20;11.90;;;4.77;;
6141;SDS011;71289;51.552;6.210;2023-12-20T02:00:46;7.33;;;4.80;;
6141;SDS011;71289;51.552;6.210;2023-12-20T02:03:12;8.10;;;4.17;;
6141;SDS011;71289;51.552;6.210;2023-12-20T02:05:38;11.40;;;4.90;;
6141;SDS011;71289;51.552;6.210;2023-12-20T02:08:04;13.50;;;4.43;;
6141;SDS011;71289;51.552;6.210;2023-12-20T02:10:31;11.53;;;4.07;;
6141;SDS011;71289;51.552;6.210;2023-12-20T02:12:57;10.80;;;4.03;;
6141;SDS011;71289;51.552;6.210;2023-12-20T02:15:22;7.23;;;3.43;;
6141;SDS011;71289;51.552;6.210;2023-12-20T02:17:48;13.87;;;4.93;;
6141;SDS011;71289;51.552;6.210;2023-12-20T02:20:14;5.40;;;4.03;;
6141;SDS011;71289;51.552;6.210;2023-12-20T02:22:40;5.67;;;3.97;;
6141;SDS011;71289;51.552;6.210;2023-12-20T02:25:05;4.17;;;2.83;;
6141;SDS011;71289;51.552;6.210;2023-12-20T02:27:31;4.20;;;3.20;;
6141;SDS011;71289;51.552;6.210;2023-12-20T02:29:57;11.07;;;4.00;;
6141;SDS011;71289;51.552;6.210;2023-12-20T02:32:23;8.23;;;2.93;;
6141;SDS011;71289;51.552;6.210;2023-12-20T02:34:52;8.83;;;3.07;;
6141;SDS011;71289;51.552;6.210;2023-12-20T02:37:18;3.73;;;1.90;;
6141;SDS011;71289;51.552;6.210;2023-12-20T02:39:44;8.83;;;3.60;;
6141;SDS011;71289;51.552;6.210;2023-12-20T02:42:09;5.20;;;2.80;;
6141;SDS011;71289;51.552;6.210;2023-12-20T02:44:35;8.00;;;2.20;;
6141;SDS011;71289;51.552;6.210;2023-12-20T02:47:01;4.60;;;2.27;;
6141;SDS011;71289;51.552;6.210;2023-12-20T02:49:27;4.30;;;2.87;;
6141;SDS011;71289;51.552;6.210;2023-12-20T02:51:52;7.10;;;3.00;;
6141;SDS011;71289;51.552;6.210;2023-12-20T02:54:18;8.77;;;1.90;;
6141;SDS011;71289;51.552;6.210;2023-12-20T02:56:43;6.97;;;2.23;;
6141;SDS011;71289;51.552;6.210;2023-12-20T02:59:09;3.73;;;2.20;;
6141;SDS011;71289;51.552;6.210;2023-12-20T03:01:34;5.83;;;2.57;;
6141;SDS011;71289;51.552;6.210;2023-12-20T03:04:00;9.70;;;3.13;;
6141;SDS011;71289;51.552;6.210;2023-12-20T03:06:26;14.03;;;2.70;;
6141;SDS011;71289;51.552;6.210;2023-12-20T03:08:52;9.23;;;2.60;;
6141;SDS011;71289;51.552;6.210;2023-12-20T03:11:17;14.83;;;2.13;;
6141;SDS011;71289;51.552;6.210;2023-12-20T03:13:43;5.80;;;2.73;;
6141;SDS011;71289;51.552;6.210;2023-12-20T03:16:09;13.30;;;2.00;;
6141;SDS011;71289;51.552;6.210;2023-12-20T03:18:35;2.70;;;2.17;;
6141;SDS011;71289;51.552;6.210;2023-12-20T03:21:01;20.10;;;3.50;;
6141;SDS011;71289;51.552;6.210;2023-12-20T03:23:29;12.30;;;2.70;;
6141;SDS011;71289;51.552;6.210;2023-12-20T03:25:55;7.50;;;2.30;;
6141;SDS011;71289;51.552;6.210;2023-12-20T03:28:21;4.30;;;2.83;;
6141;SDS011;71289;51.552;6.210;2023-12-20T03:30:47;8.43;;;2.20;;
6141;SDS011;71289;51.552;6.210;2023-12-20T03:33:13;10.30;;;2.97;;
6141;SDS011;71289;51.552;6.210;2023-12-20T03:35:39;14.77;;;3.17;;
6141;SDS011;71289;51.552;6.210;2023-12-20T03:38:04;8.80;;;3.00;;
6141;SDS011;71289;51.552;6.210;2023-12-20T03:40:30;4.77;;;2.50;;
6141;SDS011;71289;51.552;6.210;2023-12-20T03:42:55;8.10;;;2.63;;
6141;SDS011;71289;51.552;6.210;2023-12-20T03:45:21;6.93;;;2.40;;
6141;SDS011;71289;51.552;6.210;2023-12-20T03:47:46;6.20;;;3.20;;
6141;SDS011;71289;51.552;6.210;2023-12-20T03:50:12;4.50;;;2.80;;
6141;SDS011;71289;51.552;6.210;2023-12-20T03:52:38;11.00;;;3.80;;
6141;SDS011;71289;51.552;6.210;2023-12-20T03:55:03;9.63;;;2.60;;
6141;SDS011;71289;51.552;6.210;2023-12-20T03:57:29;8.63;;;2.73;;
6141;SDS011;71289;51.552;6.210;2023-12-20T03:59:55;2.40;;;2.20;;
6141;SDS011;71289;51.552;6.210;2023-12-20T04:02:20;4.70;;;3.07;;
6141;SDS011;71289;51.552;6.210;2023-12-20T04:04:46;3.83;;;2.50;;
6141;SDS011;71289;51.552;6.210;2023-12-20T04:07:11;11.03;;;4.23;;
6141;SDS011;71289;51.552;6.210;2023-12-20T04:09:37;10.00;;;3.30;;
6141;SDS011;71289;51.552;6.210;2023-12-20T04:12:02;15.13;;;3.93;;
6141;SDS011;71289;51.552;6.210;2023-12-20T04:14:29;4.60;;;3.50;;
6141;SDS011;71289;51.552;6.210;2023-12-20T04:16:55;5.80;;;3.30;;
6141;SDS011;71289;51.552;6.210;2023-12-20T04:19:21;3.17;;;2.93;;
6141;SDS011;71289;51.552;6.210;2023-12-20T04:21:46;8.23;;;3.30;;
6141;SDS011;71289;51.552;6.210;2023-12-20T04:24:12;11.70;;;3.50;;
6141;SDS011;71289;51.552;6.210;2023-12-20T04:26:37;3.80;;;2.50;;
6141;SDS011;71289;51.552;6.210;2023-12-20T04:29:03;13.40;;;3.10;;
6141;SDS011;71289;51.552;6.210;2023-12-20T04:31:28;7.03;;;2.90;;
6141;SDS011;71289;51.552;6.210;2023-12-20T04:33:54;12.53;;;3.13;;
6141;SDS011;71289;51.552;6.210;2023-12-20T04:36:19;11.83;;;2.60;;
6141;SDS011;71289;51.552;6.210;2023-12-20T04:38:45;12.70;;;2.90;;
6141;SDS011;71289;51.552;6.210;2023-12-20T04:41:10;9.40;;;2.93;;
6141;SDS011;71289;51.552;6.210;2023-12-20T04:43:36;5.67;;;3.37;;
6141;SDS011;71289;51.552;6.210;2023-12-20T04:46:02;10.90;;;4.50;;
6141;SDS011;71289;51.552;6.210;2023-12-20T04:48:28;23.53;;;4.63;;
6141;SDS011;71289;51.552;6.210;2023-12-20T04:50:53;7.93;;;4.33;;
6141;SDS011;71289;51.552;6.210;2023-12-20T04:53:19;10.33;;;4.40;;
6141;SDS011;71289;51.552;6.210;2023-12-20T04:55:45;8.97;;;4.20;;
6141;SDS011;71289;51.552;6.210;2023-12-20T04:58:10;17.87;;;4.03;;
6141;SDS011;71289;51.552;6.210;2023-12-20T05:00:36;8.43;;;4.80;;
6141;SDS011;71289;51.552;6.210;2023-12-20T05:03:01;15.27;;;5.87;;
6141;SDS011;71289;51.552;6.210;2023-12-20T05:05:27;6.73;;;4.37;;
6141;SDS011;71289;51.552;6.210;2023-12-20T05:07:52;12.27;;;4.87;;
6141;SDS011;71289;51.552;6.210;2023-12-20T05:10:18;16.13;;;6.03;;
6141;SDS011;71289;51.552;6.210;2023-12-20T05:12:43;37.07;;;5.47;;
6141;SDS011;71289;51.552;6.210;2023-12-20T05:15:08;11.73;;;4.90;;
6141;SDS011;71289;51.552;6.210;2023-12-20T05:17:34;12.97;;;4.40;;
6141;SDS011;71289;51.552;6.210;2023-12-20T05:20:00;15.50;;;5.20;;
6141;SDS011;71289;51.552;6.210;2023-12-20T05:22:25;12.17;;;5.70;;
6141;SDS011;71289;51.552;6.210;2023-12-20T05:24:52;9.57;;;4.63;;
6141;SDS011;71289;51.552;6.210;2023-12-20T05:27:18;5.97;;;4.70;;
6141;SDS011;71289;51.552;6.210;2023-12-20T05:29:43;17.27;;;5.03;;
6141;SDS011;71289;51.552;6.210;2023-12-20T05:32:09;10.27;;;4.80;;
6141;SDS011;71289;51.552;6.210;2023-12-20T05:34:35;11.40;;;4.10;;
6141;SDS011;71289;51.552;6.210;2023-12-20T05:37:01;8.57;;;4.47;;
6141;SDS011;71289;51.552;6.210;2023-12-20T05:39:27;9.80;;;5.20;;
6141;SDS011;71289;51.552;6.210;2023-12-20T05:41:52;17.43;;;5.20;;
6141;SDS011;71289;51.552;6.210;2023-12-20T05:44:18;23.90;;;5.30;;
6141;SDS011;71289;51.552;6.210;2023-12-20T05:46:44;10.23;;;4.60;;
6141;SDS011;71289;51.552;6.210;2023-12-20T05:49:09;15.37;;;5.30;;
6141;SDS011;71289;51.552;6.210;2023-12-20T05:51:35;13.70;;;5.30;;
6141;SDS011;71289;51.552;6.210;2023-12-20T05:54:01;14.87;;;6.70;;
6141;SDS011;71289;51.552;6.210;2023-12-20T05:56:26;7.23;;;4.70;;
6141;SDS011;71289;51.552;6.210;2023-12-20T05:58:52;14.40;;;4.70;;
6141;SDS011;71289;51.552;6.210;2023-12-20T06:01:18;15.93;;;4.57;;
6141;SDS011;71289;51.552;6.210;2023-12-20T06:03:43;10.80;;;4.20;;
6141;SDS011;71289;51.552;6.210;2023-12-20T06:06:10;9.83;;;4.73;;
6141;SDS011;71289;51.552;6.210;2023-12-20T06:08:37;13.97;;;5.83;;
6141;SDS011;71289;51.552;6.210;2023-12-20T06:11:03;10.33;;;4.57;;
6141;SDS011;71289;51.552;6.210;2023-12-20T06:13:28;27.63;;;5.50;;
6141;SDS011;71289;51.552;6.210;2023-12-20T06:15:54;11.30;;;4.17;;
6141;SDS011;71289;51.552;6.210;2023-12-20T06:18:20;12.00;;;4.60;;
6141;SDS011;71289;51.552;6.210;2023-12-20T06:20:46;7.03;;;4.40;;
6141;SDS011;71289;51.552;6.210;2023-12-20T06:23:11;26.43;;;4.70;;
6141;SDS011;71289;51.552;6.210;2023-12-20T06:25:37;9.17;;;4.37;;
6141;SDS011;71289;51.552;6.210;2023-12-20T06:28:02;11.20;;;4.40;;
6141;SDS011;71289;51.552;6.210;2023-12-20T06:30:28;32.23;;;5.07;;
6141;SDS011;71289;51.552;6.210;2023-12-20T06:32:54;29.10;;;5.23;;
6141;SDS011;71289;51.552;6.210;2023-12-20T06:35:22;10.50;;;4.90;;
6141;SDS011;71289;51.552;6.210;2023-12-20T06:37:47;10.10;;;4.63;;
6141;SDS011;71289;51.552;6.210;2023-12-20T06:40:13;14.40;;;5.87;;
6141;SDS011;71289;51.552;6.210;2023-12-20T06:42:39;29.80;;;7.00;;
6141;SDS011;71289;51.552;6.210;2023-12-20T06:45:04;6.40;;;4.13;;
6141;SDS011;71289;51.552;6.210;2023-12-20T06:47:30;20.90;;;4.23;;
6141;SDS011;71289;51.552;6.210;2023-12-20T06:49:55;9.13;;;4.30;;
6141;SDS011;71289;51.552;6.210;2023-12-20T06:52:21;11.50;;;3.60;;
6141;SDS011;71289;51.552;6.210;2023-12-20T06:54:47;20.03;;;5.67;;
6141;SDS011;71289;51.552;6.210;2023-12-20T06:57:12;8.97;;;3.90;;
6141;SDS011;71289;51.552;6.210;2023-12-20T06:59:38;13.77;;;6.73;;
6141;SDS011;71289;51.552;6.210;2023-12-20T07:02:05;25.93;;;4.80;;
6141;SDS011;71289;51.552;6.210;2023-12-20T07:04:30;13.10;;;5.30;;
6141;SDS011;71289;51.552;6.210;2023-12-20T07:06:56;14.57;;;4.93;;
6141;SDS011;71289;51.552;6.210;2023-12-20T07:09:25;12.90;;;5.53;;
6141;SDS011;71289;51.552;6.210;2023-12-20T07:11:53;15.87;;;5.73;;
6141;SDS011;71289;51.552;6.210;2023-12-20T07:14:19;10.33;;;5.10;;
6141;SDS011;71289;51.552;6.210;2023-12-20T07:16:44;8.40;;;4.57;;
6141;SDS011;71289;51.552;6.210;2023-12-20T07:19:10;11.37;;;3.60;;
6141;SDS011;71289;51.552;6.210;2023-12-20T07:21:35;11.60;;;4.43;;
6141;SDS011;71289;51.552;6.210;2023-12-20T07:24:01;6.67;;;4.40;;
6141;SDS011;71289;51.552;6.210;2023-12-20T07:26:26;14.47;;;4.80;;
6141;SDS011;71289;51.552;6.210;2023-12-20T07:28:52;11.40;;;4.27;;
6141;SDS011;71289;51.552;6.210;2023-12-20T07:31:17;21.83;;;4.63;;
6141;SDS011;71289;51.552;6.210;2023-12-20T07:33:43;6.87;;;4.23;;
6141;SDS011;71289;51.552;6.210;2023-12-20T07:36:09;10.03;;;3.73;;
6141;SDS011;71289;51.552;6.210;2023-12-20T07:38:34;14.90;;;4.27;;
6141;SDS011;71289;51.552;6.210;2023-12-20T07:41:01;12.20;;;4.40;;
6141;SDS011;71289;51.552;6.210;2023-12-20T07:43:27;8.93;;;3.70;;
6141;SDS011;71289;51.552;6.210;2023-12-20T07:45:52;15.33;;;3.67;;
6141;SDS011;71289;51.552;6.210;2023-12-20T07:48:18;6.03;;;3.77;;
6141;SDS011;71289;51.552;6.210;2023-12-20T07:50:43;14.87;;;3.63;;
6141;SDS011;71289;51.552;6.210;2023-12-20T07:53:09;11.80;;;4.80;;
6141;SDS011;71289;51.552;6.210;2023-12-20T07:55:34;18.10;;;4.10;;
6141;SDS011;71289;51.552;6.210;2023-12-20T07:58:00;5.80;;;3.30;;
6141;SDS011;71289;51.552;6.210;2023-12-20T08:00:26;17.37;;;3.80;;
6141;SDS011;71289;51.552;6.210;2023-12-20T08:02:52;9.33;;;3.00;;
6141;SDS011;71289;51.552;6.210;2023-12-20T08:05:18;10.73;;;4.10;;
6141;SDS011;71289;51.552;6.210;2023-12-20T08:07:43;7.17;;;3.60;;
6141;SDS011;71289;51.552;6.210;2023-12-20T08:10:09;13.77;;;4.80;;
6141;SDS011;71289;51.552;6.210;2023-12-20T08:12:35;9.00;;;3.40;;
6141;SDS011;71289;51.552;6.210;2023-12-20T08:15:01;9.40;;;3.13;;
6141;SDS011;71289;51.552;6.210;2023-12-20T08:17:26;6.93;;;2.97;;
6141;SDS011;71289;51.552;6.210;2023-12-20T08:19:52;9.90;;;3.43;;
6141;SDS011;71289;51.552;6.210;2023-12-20T08:22:17;4.70;;;2.50;;
6141;SDS011;71289;51.552;6.210;2023-12-20T08:24:43;7.53;;;2.67;;
6141;SDS011;71289;51.552;6.210;2023-12-20T08:27:08;27.83;;;3.20;;
6141;SDS011;71289;51.552;6.210;2023-12-20T08:29:34;9.27;;;3.00;;
6141;SDS011;71289;51.552;6.210;2023-12-20T08:32:00;13.87;;;4.10;;
6141;SDS011;71289;51.552;6.210;2023-12-20T08:34:26;13.73;;;2.33;;
6141;SDS011;71289;51.552;6.210;2023-12-20T08:36:51;10.03;;;3.30;;
6141;SDS011;71289;51.552;6.210;2023-12-20T08:39:17;17.97;;;4.07;;
6141;SDS011;71289;51.552;6.210;2023-12-20T08:41:43;17.03;;;3.23;;
6141;SDS011;71289;51.552;6.210;2023-12-20T08:44:08;7.60;;;3.90;;
6141;SDS011;71289;51.552;6.210;2023-12-20T08:46:34;9.50;;;2.57;;
6141;SDS011;71289;51.552;6.210;2023-12-20T08:49:00;3.13;;;2.70;;
6141;SDS011;71289;51.552;6.210;2023-12-20T08:51:26;16.50;;;4.37;;
6141;SDS011;71289;51.552;6.210;2023-12-20T08:53:52;6.93;;;2.70;;
6141;SDS011;71289;51.552;6.210;2023-12-20T08:56:18;14.33;;;4.33;;
6141;SDS011;71289;51.552;6.210;2023-12-20T08:58:44;7.93;;;2.67;;
6141;SDS011;71289;51.552;6.210;2023-12-20T09:01:13;8.77;;;2.57;;
6141;SDS011;71289;51.552;6.210;2023-12-20T09:03:39;11.97;;;4.00;;
6141;SDS011;71289;51.552;6.210;2023-12-20T09:06:05;8.00;;;3.30;;
6141;SDS011;71289;51.552;6.210;2023-12-20T09:08:31;10.80;;;3.40;;
6141;SDS011;71289;51.552;6.210;2023-12-20T09:10:56;8.00;;;3.20;;
6141;SDS011;71289;51.552;6.210;2023-12-20T09:13:22;7.43;;;3.30;;
6141;SDS011;71289;51.552;6.210;2023-12-20T09:15:53;8.73;;;2.77;;
6141;SDS011;71289;51.552;6.210;2023-12-20T09:18:21;7.30;;;3.50;;
6141;SDS011;71289;51.552;6.210;2023-12-20T09:20:47;11.13;;;3.70;;
6141;SDS011;71289;51.552;6.210;2023-12-20T09:23:12;13.90;;;3.40;;
6141;SDS011;71289;51.552;6.210;2023-12-20T09:25:38;10.37;;;3.37;;
6141;SDS011;71289;51.552;6.210;2023-12-20T09:28:04;21.37;;;3.30;;
6141;SDS011;71289;51.552;6.210;2023-12-20T09:30:30;18.57;;;3.57;;
6141;SDS011;71289;51.552;6.210;2023-12-20T09:32:56;4.60;;;2.87;;
6141;SDS011;71289;51.552;6.210;2023-12-20T09:35:22;2.80;;;2.53;;
6141;SDS011;71289;51.552;6.210;2023-12-20T09:37:48;11.40;;;3.53;;
6141;SDS011;71289;51.552;6.210;2023-12-20T09:40:13;7.13;;;3.30;;
6141;SDS011;71289;51.552;6.210;2023-12-20T09:42:51;11.97;;;3.37;;
6141;SDS011;71289;51.552;6.210;2023-12-20T09:45:23;7.30;;;3.20;;
6141;SDS011;71289;51.552;6.210;2023-12-20T09:47:50;6.80;;;3.50;;
6141;SDS011;71289;51.552;6.210;2023-12-20T09:50:18;15.00;;;3.60;;
6141;SDS011;71289;51.552;6.210;2023-12-20T09:52:45;7.93;;;4.33;;
6141;SDS011;71289;51.552;6.210;2023-12-20T09:55:14;9.20;;;4.20;;
6141;SDS011;71289;51.552;6.210;2023-12-20T09:57:42;3.27;;;2.97;;
6141;SDS011;71289;51.552;6.210;2023-12-20T10:00:07;6.80;;;3.57;;
6141;SDS011;71289;51.552;6.210;2023-12-20T10:02:33;8.10;;;3.13;;
6141;SDS011;71289;51.552;6.210;2023-12-20T10:05:03;12.07;;;4.50;;
6141;SDS011;71289;51.552;6.210;2023-12-20T10:07:34;7.67;;;3.57;;
6141;SDS011;71289;51.552;6.210;2023-12-20T10:10:00;10.80;;;3.50;;
6141;SDS011;71289;51.552;6.210;2023-12-20T10:12:27;16.50;;;4.10;;
6141;SDS011;71289;51.552;6.210;2023-12-20T10:14:52;15.17;;;3.50;;
6141;SDS011;71289;51.552;6.210;2023-12-20T10:17:18;10.20;;;3.80;;
6141;SDS011;71289;51.552;6.210;2023-12-20T10:19:43;10.00;;;4.40;;
6141;SDS011;71289;51.552;6.210;2023-12-20T10:22:09;12.23;;;3.63;;
6141;SDS011;71289;51.552;6.210;2023-12-20T10:24:35;11.23;;;3.77;;
6141;SDS011;71289;51.552;6.210;2023-12-20T10:27:01;11.10;;;3.63;;
6141;SDS011;71289;51.552;6.210;2023-12-20T10:29:37;5.43;;;3.30;;
6141;SDS011;71289;51.552;6.210;2023-12-20T10:32:22;16.50;;;4.60;;
6141;SDS011;71289;51.552;6.210;2023-12-20T10:34:49;14.53;;;2.80;;
6141;SDS011;71289;51.552;6.210;2023-12-20T10:37:15;5.53;;;4.20;;
6141;SDS011;71289;51.552;6.210;2023-12-20T10:39:42;19.37;;;3.50;;
6141;SDS011;71289;51.552;6.210;2023-12-20T10:42:11;5.40;;;3.00;;
6141;SDS011;71289;51.552;6.210;2023-12-20T10:44:38;3.87;;;3.00;;
6141;SDS011;71289;51.552;6.210;2023-12-20T10:47:04;11.63;;;4.17;;
6141;SDS011;71289;51.552;6.210;2023-12-20T10:49:31;8.87;;;4.00;;
6141;SDS011;71289;51.552;6.210;2023-12-20T10:51:59;15.53;;;3.53;;
6141;SDS011;71289;51.552;6.210;2023-12-20T10:54:27;7.43;;;4.77;;
6141;SDS011;71289;51.552;6.210;2023-12-20T10:56:53;12.20;;;4.90;;
6141;SDS011;71289;51.552;6.210;2023-12-20T10:59:19;13.27;;;3.70;;
6141;SDS011;71289;51.552;6.210;2023-12-20T11:01:45;8.77;;;3.77;;
6141;SDS011;71289;51.552;6.210;2023-12-20T11:04:14;3.03;;;2.73;;
6141;SDS011;71289;51.552;6.210;2023-12-20T11:06:48;12.50;;;3.30;;
6141;SDS011;71289;51.552;6.210;2023-12-20T11:09:22;9.73;;;3.57;;
6141;SDS011;71289;51.552;6.210;2023-12-20T11:12:02;9.00;;;4.07;;
6141;SDS011;71289;51.552;6.210;2023-12-20T11:14:43;11.13;;;4.10;;
6141;SDS011;71289;51.552;6.210;2023-12-20T11:17:13;14.33;;;4.50;;
6141;SDS011;71289;51.552;6.210;2023-12-20T11:22:21;13.53;;;4.10;;
6141;SDS011;71289;51.552;6.210;2023-12-20T11:24:51;6.33;;;3.40;;
6141;SDS011;71289;51.552;6.210;2023-12-20T11:27:18;10.80;;;3.73;;
6141;SDS011;71289;51.552;6.210;2023-12-20T11:29:51;15.03;;;4.27;;
6141;SDS011;71289;51.552;6.210;2023-12-20T11:37:25;5.23;;;3.30;;
6141;SDS011;71289;51.552;6.210;2023-12-20T11:40:00;6.80;;;3.40;;
6141;SDS011;71289;51.552;6.210;2023-12-20T11:42:32;20.13;;;5.80;;
6141;SDS011;71289;51.552;6.210;2023-12-20T11:45:09;11.00;;;4.07;;
6141;SDS011;71289;51.552;6.210;2023-12-20T11:47:42;15.60;;;5.07;;
6141;SDS011;71289;51.552;6.210;2023-12-20T11:50:10;11.10;;;3.47;;
6141;SDS011;71289;51.552;6.210;2023-12-20T11:52:36;8.10;;;4.00;;
6141;SDS011;71289;51.552;6.210;2023-12-20T11:55:01;10.43;;;4.70;;
6141;SDS011;71289;51.552;6.210;2023-12-20T11:57:28;10.17;;;4.43;;
6141;SDS011;71289;51.552;6.210;2023-12-20T11:59:54;8.40;;;3.50;;
6141;SDS011;71289;51.552;6.210;2023-12-20T12:02:20;20.63;;;4.63;;
6141;SDS011;71289;51.552;6.210;2023-12-20T12:04:45;4.13;;;3.73;;
6141;SDS011;71289;51.552;6.210;2023-12-20T12:07:14;11.40;;;4.43;;
6141;SDS011;71289;51.552;6.210;2023-12-20T12:09:39;4.00;;;3.60;;
6141;SDS011;71289;51.552;6.210;2023-12-20T12:12:05;8.03;;;3.30;;
6141;SDS011;71289;51.552;6.210;2023-12-20T12:14:31;4.67;;;3.57;;
6141;SDS011;71289;51.552;6.210;2023-12-20T12:16:57;17.77;;;8.00;;
6141;SDS011;71289;51.552;6.210;2023-12-20T12:19:23;6.73;;;3.63;;
6141;SDS011;71289;51.552;6.210;2023-12-20T12:21:50;8.63;;;3.63;;
6141;SDS011;71289;51.552;6.210;2023-12-20T12:24:19;8.00;;;3.30;;
6141;SDS011;71289;51.552;6.210;2023-12-20T12:26:49;4.00;;;3.10;;
6141;SDS011;71289;51.552;6.210;2023-12-20T12:29:22;10.87;;;4.80;;
6141;SDS011;71289;51.552;6.210;2023-12-20T12:31:49;8.53;;;4.70;;
6141;SDS011;71289;51.552;6.210;2023-12-20T12:34:15;5.43;;;3.70;;
6141;SDS011;71289;51.552;6.210;2023-12-20T12:36:41;7.27;;;4.00;;
6141;SDS011;71289;51.552;6.210;2023-12-20T12:39:06;17.20;;;5.73;;
6141;SDS011;71289;51.552;6.210;2023-12-20T12:41:32;12.70;;;5.60;;
6141;SDS011;71289;51.552;6.210;2023-12-20T12:43:58;9.60;;;4.33;;
6141;SDS011;71289;51.552;6.210;2023-12-20T12:46:24;14.20;;;5.53;;
6141;SDS011;71289;51.552;6.210;2023-12-20T12:48:49;9.87;;;4.70;;
6141;SDS011;71289;51.552;6.210;2023-12-20T12:51:15;14.07;;;4.10;;
6141;SDS011;71289;51.552;6.210;2023-12-20T12:53:41;9.70;;;5.43;;
6141;SDS011;71289;51.552;6.210;2023-12-20T12:56:06;13.23;;;4.40;;
6141;SDS011;71289;51.552;6.210;2023-12-20T12:58:33;10.60;;;4.40;;
6141;SDS011;71289;51.552;6.210;2023-12-20T13:00:58;16.27;;;4.70;;
6141;SDS011;71289;51.552;6.210;2023-12-20T13:03:24;8.60;;;4.27;;
6141;SDS011;71289;51.552;6.210;2023-12-20T13:05:50;13.10;;;4.90;;
6141;SDS011;71289;51.552;6.210;2023-12-20T13:08:15;16.80;;;6.17;;
6141;SDS011;71289;51.552;6.210;2023-12-20T13:10:41;18.60;;;4.90;;
6141;SDS011;71289;51.552;6.210;2023-12-20T13:13:07;12.43;;;4.53;;
6141;SDS011;71289;51.552;6.210;2023-12-20T13:15:32;5.00;;;4.30;;
6141;SDS011;71289;51.552;6.210;2023-12-20T13:17:58;13.00;;;5.67;;
6141;SDS011;71289;51.552;6.210;2023-12-20T13:20:25;10.40;;;4.70;;
6141;SDS011;71289;51.552;6.210;2023-12-20T13:22:50;15.13;;;4.80;;
6141;SDS011;71289;51.552;6.210;2023-12-20T13:25:15;8.90;;;5.70;;
6141;SDS011;71289;51.552;6.210;2023-12-20T13:27:41;10.10;;;5.83;;
6141;SDS011;71289;51.552;6.210;2023-12-20T13:30:07;11.40;;;5.50;;
6141;SDS011;71289;51.552;6.210;2023-12-20T13:32:32;9.77;;;5.47;;
6141;SDS011;71289;51.552;6.210;2023-12-20T13:34:58;10.43;;;5.67;;
6141;SDS011;71289;51.552;6.210;2023-12-20T13:37:23;7.17;;;5.53;;
6141;SDS011;71289;51.552;6.210;2023-12-20T13:39:49;7.80;;;5.50;;
6141;SDS011;71289;51.552;6.210;2023-12-20T13:42:14;17.60;;;6.53;;
6141;SDS011;71289;51.552;6.210;2023-12-20T13:44:40;15.80;;;5.30;;
6141;SDS011;71289;51.552;6.210;2023-12-20T13:47:06;9.63;;;5.43;;
6141;SDS011;71289;51.552;6.210;2023-12-20T13:49:31;8.67;;;5.13;;
6141;SDS011;71289;51.552;6.210;2023-12-20T13:51:57;30.10;;;6.40;;
6141;SDS011;71289;51.552;6.210;2023-12-20T13:54:23;17.33;;;7.27;;
6141;SDS011;71289;51.552;6.210;2023-12-20T13:56:49;14.70;;;5.77;;
6141;SDS011;71289;51.552;6.210;2023-12-20T13:59:14;13.83;;;7.10;;
6141;SDS011;71289;51.552;6.210;2023-12-20T14:01:41;15.93;;;6.70;;
6141;SDS011;71289;51.552;6.210;2023-12-20T14:04:06;9.13;;;5.80;;
6141;SDS011;71289;51.552;6.210;2023-12-20T14:06:32;13.43;;;6.80;;
6141;SDS011;71289;51.552;6.210;2023-12-20T14:08:58;16.60;;;6.73;;
6141;SDS011;71289;51.552;6.210;2023-12-20T14:11:27;15.10;;;7.37;;
6141;SDS011;71289;51.552;6.210;2023-12-20T14:13:52;15.33;;;7.93;;
6141;SDS011;71289;51.552;6.210;2023-12-20T14:16:22;11.00;;;6.33;;
6141;SDS011;71289;51.552;6.210;2023-12-20T14:18:48;15.37;;;6.67;;
6141;SDS011;71289;51.552;6.210;2023-12-20T14:21:14;14.00;;;6.70;;
6141;SDS011;71289;51.552;6.210;2023-12-20T14:23:39;16.03;;;7.60;;
6141;SDS011;71289;51.552;6.210;2023-12-20T14:26:05;14.03;;;7.80;;
6141;SDS011;71289;51.552;6.210;2023-12-20T14:28:30;14.87;;;6.20;;
6141;SDS011;71289;51.552;6.210;2023-12-20T14:30:56;22.07;;;9.80;;
6141;SDS011;71289;51.552;6.210;2023-12-20T14:33:21;12.47;;;5.97;;
6141;SDS011;71289;51.552;6.210;2023-12-20T14:35:47;26.47;;;8.50;;
6141;SDS011;71289;51.552;6.210;2023-12-20T14:38:13;19.80;;;6.73;;
6141;SDS011;71289;51.552;6.210;2023-12-20T14:40:40;14.03;;;7.57;;
6141;SDS011;71289;51.552;6.210;2023-12-20T14:43:05;10.33;;;6.67;;
6141;SDS011;71289;51.552;6.210;2023-12-20T14:45:31;9.67;;;6.07;;
6141;SDS011;71289;51.552;6.210;2023-12-20T14:47:57;13.30;;;7.57;;
6141;SDS011;71289;51.552;6.210;2023-12-20T14:50:23;15.60;;;6.90;;
6141;SDS011;71289;51.552;6.210;2023-12-20T14:52:49;8.23;;;7.13;;
6141;SDS011;71289;51.552;6.210;2023-12-20T14:55:15;8.43;;;5.90;;